createdAt,value
2019-01-22T00:01:37.127Z,10.50
2019-01-22T00:04:04.252Z,10.77
2019-01-22T00:06:31.476Z,11.60
2019-01-22T00:09:00.434Z,10.63
2019-01-22T00:11:29.298Z,11.03
2019-01-22T00:13:56.446Z,10.40
2019-01-22T00:16:23.569Z,11.30
2019-01-22T00:18:50.914Z,11.07
2019-01-22T00:21:18.075Z,11.10
2019-01-22T00:23:45.175Z,10.27
2019-01-22T00:26:12.301Z,10.57
2019-01-22T00:28:39.393Z,11.23
2019-01-22T00:31:06.466Z,11.50
2019-01-22T00:33:34.053Z,10.20
2019-01-22T00:36:01.370Z,10.80
2019-01-22T00:38:28.429Z,11.30
2019-01-22T00:40:55.605Z,10.73
2019-01-22T00:43:22.760Z,10.77
2019-01-22T00:45:49.984Z,10.60
2019-01-22T00:48:17.124Z,11.20
2019-01-22T00:50:44.235Z,9.50
2019-01-22T00:53:11.399Z,10.13
2019-01-22T00:55:38.561Z,11.37
2019-01-22T00:58:05.825Z,10.10
2019-01-22T01:00:32.895Z,10.97
2019-01-22T01:03:00.010Z,10.50
2019-01-22T01:05:27.591Z,10.23
2019-01-22T01:07:54.705Z,10.23
2019-01-22T01:10:21.870Z,11.57
2019-01-22T01:12:48.934Z,9.60
2019-01-22T01:15:16.211Z,10.50
2019-01-22T01:17:43.286Z,10.53
2019-01-22T01:20:10.380Z,10.47
2019-01-22T01:22:37.720Z,10.67
2019-01-22T01:25:05.006Z,11.03
2019-01-22T01:27:32.079Z,11.30
2019-01-22T01:29:59.250Z,10.17
2019-01-22T01:32:26.386Z,10.87
2019-01-22T01:34:53.565Z,10.20
2019-01-22T01:37:20.993Z,10.47
2019-01-22T01:39:48.089Z,10.07
2019-01-22T01:42:15.206Z,9.90
2019-01-22T01:44:42.346Z,9.67
2019-01-22T01:47:09.543Z,10.30
2019-01-22T01:49:36.703Z,10.47
2019-01-22T01:52:03.847Z,10.67
2019-01-22T01:54:31.328Z,9.60
2019-01-22T01:56:58.431Z,10.60
2019-01-22T01:59:25.563Z,10.23
2019-01-22T02:01:52.713Z,9.20
2019-01-22T02:04:19.936Z,9.47
2019-01-22T02:06:47.262Z,10.70
2019-01-22T02:09:14.323Z,9.97
2019-01-22T02:11:41.685Z,10.57
2019-01-22T02:14:08.761Z,10.60
2019-01-22T02:16:36.062Z,9.03
2019-01-22T02:19:03.153Z,9.37
2019-01-22T02:21:30.330Z,9.37
2019-01-22T02:23:57.386Z,9.33
2019-01-22T02:26:25.028Z,9.50
2019-01-22T02:28:52.120Z,9.87
2019-01-22T02:31:19.238Z,10.00
2019-01-22T02:33:46.406Z,9.50
2019-01-22T02:36:13.472Z,9.33
2019-01-22T02:38:40.719Z,9.70
2019-01-22T02:41:09.024Z,9.50
2019-01-22T02:43:36.235Z,9.90
2019-01-22T02:46:03.498Z,9.80
2019-01-22T02:48:30.603Z,10.00
2019-01-22T02:50:57.661Z,9.63
2019-01-22T02:53:24.745Z,9.40
2019-01-22T02:55:51.899Z,9.67
2019-01-22T02:58:19.034Z,10.60
2019-01-22T03:00:46.092Z,10.10
2019-01-22T03:03:13.262Z,9.43
2019-01-22T03:05:40.324Z,9.13
2019-01-22T03:08:07.551Z,8.37
2019-01-22T03:10:34.658Z,9.37
2019-01-22T03:13:02.243Z,9.33
2019-01-22T03:15:29.369Z,10.30
2019-01-22T03:17:56.555Z,9.70
2019-01-22T03:20:23.722Z,9.73
2019-01-22T03:22:50.833Z,9.03
2019-01-22T03:25:17.976Z,9.43
2019-01-22T03:27:45.580Z,9.13
2019-01-22T03:30:12.634Z,8.87
2019-01-22T03:32:39.741Z,9.80
2019-01-22T03:35:06.884Z,10.17
2019-01-22T03:37:34.175Z,9.20
2019-01-22T03:40:01.238Z,9.50
2019-01-22T03:42:28.334Z,8.97
2019-01-22T03:44:55.490Z,9.17
2019-01-22T03:47:22.782Z,8.83
2019-01-22T03:49:49.881Z,10.07
2019-01-22T03:52:16.964Z,10.07
2019-01-22T03:54:44.066Z,8.80
2019-01-22T03:57:11.745Z,8.43
2019-01-22T03:59:38.845Z,9.40
2019-01-22T04:02:05.916Z,9.70
2019-01-22T04:04:33.008Z,9.70
2019-01-22T04:07:00.184Z,9.17
2019-01-22T04:09:27.357Z,9.00
2019-01-22T04:11:54.414Z,8.30
2019-01-22T04:14:21.473Z,9.30
2019-01-22T04:16:48.799Z,9.60
2019-01-22T04:19:15.934Z,9.90
2019-01-22T04:21:43.087Z,9.53
2019-01-22T04:24:10.159Z,10.40
2019-01-22T04:26:37.370Z,8.37
2019-01-22T04:29:04.438Z,9.40
2019-01-22T04:31:31.610Z,9.00
2019-01-22T04:33:58.661Z,8.90
2019-01-22T04:36:25.770Z,9.73
2019-01-22T04:38:52.822Z,8.50
2019-01-22T04:41:19.954Z,8.73
2019-01-22T04:43:47.072Z,8.93
2019-01-22T04:46:14.275Z,10.10
2019-01-22T04:48:41.353Z,8.47
2019-01-22T04:51:08.516Z,8.33
2019-01-22T04:53:35.580Z,8.70
2019-01-22T04:56:02.879Z,9.23
2019-01-22T04:58:30.014Z,9.80
2019-01-22T05:00:57.208Z,9.20
2019-01-22T05:03:24.293Z,8.47
2019-01-22T05:05:51.353Z,9.80
2019-01-22T05:08:18.551Z,9.30
2019-01-22T05:10:45.689Z,8.87
2019-01-22T05:13:12.790Z,8.80
2019-01-22T05:15:39.856Z,8.47
2019-01-22T05:18:07.130Z,9.30
2019-01-22T05:20:34.255Z,9.67
2019-01-22T05:23:01.349Z,8.63
2019-01-22T05:25:28.403Z,8.40
2019-01-22T05:27:55.536Z,9.00
2019-01-22T05:30:22.705Z,9.33
2019-01-22T05:32:49.774Z,9.70
2019-01-22T05:35:16.880Z,10.53
2019-01-22T05:37:44.135Z,10.00
2019-01-22T05:40:11.265Z,9.07
2019-01-22T05:42:38.540Z,8.87
2019-01-22T05:45:05.626Z,9.60
2019-01-22T05:47:32.732Z,9.80
2019-01-22T05:50:00.993Z,10.20
2019-01-22T05:52:28.137Z,9.10
2019-01-22T05:54:55.314Z,8.37
2019-01-22T05:57:22.368Z,9.83
2019-01-22T05:59:49.434Z,10.07
2019-01-22T06:02:17.227Z,9.67
2019-01-22T06:04:44.254Z,8.90
2019-01-22T06:07:11.348Z,9.50
2019-01-22T06:09:38.407Z,11.50
2019-01-22T06:12:14.823Z,9.77
2019-01-22T06:14:40.877Z,10.60
2019-01-22T06:17:08.141Z,10.40
2019-01-22T06:19:35.198Z,9.23
2019-01-22T06:22:02.298Z,9.50
2019-01-22T06:24:33.390Z,8.43
2019-01-22T06:26:58.348Z,9.07
2019-01-22T06:29:34.818Z,9.40
2019-01-22T06:32:21.194Z,9.50
2019-01-22T06:34:48.264Z,9.07
2019-01-22T06:37:15.336Z,8.67
2019-01-22T06:39:42.428Z,9.00
2019-01-22T06:42:09.526Z,9.67
2019-01-22T06:44:36.587Z,9.30
2019-01-22T06:47:03.846Z,9.10
2019-01-22T06:49:30.910Z,9.30
2019-01-22T06:51:57.999Z,9.90
2019-01-22T06:54:25.059Z,8.40
2019-01-22T06:56:52.120Z,10.13
2019-01-22T06:59:19.296Z,9.80
2019-01-22T07:01:46.349Z,9.77
2019-01-22T07:04:13.446Z,9.40
2019-01-22T07:06:40.680Z,10.07
2019-01-22T07:09:07.817Z,8.50
2019-01-22T07:11:34.885Z,9.93
2019-01-22T07:14:02.039Z,10.03
2019-01-22T07:16:29.235Z,9.40
2019-01-22T07:18:56.382Z,10.53
2019-01-22T07:21:23.479Z,10.80
2019-01-22T07:23:50.574Z,9.90
2019-01-22T07:26:17.660Z,9.23
2019-01-22T07:28:44.891Z,10.00
2019-01-22T07:31:12.000Z,9.97
2019-01-22T07:33:39.155Z,9.23
2019-01-22T07:36:06.215Z,9.97
2019-01-22T07:38:33.497Z,10.67
2019-01-22T07:41:00.565Z,9.13
2019-01-22T07:43:27.652Z,9.70
2019-01-22T07:45:54.718Z,9.30
2019-01-22T07:48:21.870Z,10.60
2019-01-22T07:50:48.965Z,9.87
2019-01-22T07:53:16.107Z,9.27
2019-01-22T07:55:43.171Z,11.40
2019-01-22T07:58:10.268Z,9.40
2019-01-22T08:00:37.399Z,10.27
2019-01-22T08:03:04.509Z,9.60
2019-01-22T08:05:31.654Z,10.40
2019-01-22T08:07:58.800Z,10.90
2019-01-22T08:10:25.892Z,8.90
2019-01-22T08:12:53.183Z,10.10
2019-01-22T08:15:20.564Z,9.47
2019-01-22T08:17:47.917Z,10.40
2019-01-22T08:20:15.007Z,9.50
2019-01-22T08:22:42.177Z,10.30
2019-01-22T08:25:09.234Z,10.90
2019-01-22T08:27:36.505Z,9.20
2019-01-22T08:30:03.634Z,9.53
2019-01-22T08:32:30.747Z,9.67
2019-01-22T08:34:58.047Z,9.50
2019-01-22T08:37:25.132Z,9.50
2019-01-22T08:39:52.235Z,9.53
2019-01-22T08:42:19.365Z,10.07
2019-01-22T08:44:46.657Z,9.07
2019-01-22T08:47:13.990Z,9.53
2019-01-22T08:49:41.115Z,9.70
2019-01-22T08:52:08.395Z,9.20
2019-01-22T08:54:35.452Z,11.13
2019-01-22T08:57:02.705Z,9.83
2019-01-22T08:59:29.770Z,9.67
2019-01-22T09:01:56.862Z,9.67
2019-01-22T09:04:23.918Z,9.40
2019-01-22T09:06:51.088Z,9.50
2019-01-22T09:09:18.142Z,9.90
2019-01-22T09:11:45.234Z,9.70
2019-01-22T09:14:12.327Z,9.43
2019-01-22T09:16:39.399Z,9.70
2019-01-22T09:19:06.530Z,9.67
2019-01-22T09:21:33.626Z,8.97
2019-01-22T09:24:01.839Z,8.40
2019-01-22T09:26:29.266Z,8.80
2019-01-22T09:28:56.372Z,9.20
2019-01-22T09:31:23.438Z,9.20
2019-01-22T09:33:50.531Z,9.67
2019-01-22T09:36:17.718Z,9.00
2019-01-22T09:38:44.777Z,8.93
2019-01-22T09:41:11.843Z,9.07
2019-01-22T09:43:38.944Z,8.40
2019-01-22T09:46:06.001Z,8.80
2019-01-22T09:48:33.156Z,8.60
2019-01-22T09:51:00.220Z,7.90
2019-01-22T09:53:27.302Z,9.50
2019-01-22T09:56:00.357Z,8.90
2019-01-22T09:58:23.186Z,8.60
2019-01-22T10:00:50.294Z,8.60
2019-01-22T10:03:17.372Z,8.50
2019-01-22T10:05:44.533Z,8.50
2019-01-22T10:08:11.786Z,8.27
2019-01-22T10:10:38.879Z,8.10
2019-01-22T10:13:05.960Z,7.93
2019-01-22T10:15:33.032Z,8.40
2019-01-22T10:18:00.177Z,7.13
2019-01-22T10:20:27.238Z,8.53
2019-01-22T10:22:54.327Z,8.37
2019-01-22T10:25:21.382Z,7.90
2019-01-22T10:27:48.451Z,7.40
2019-01-22T10:30:15.627Z,7.70
2019-01-22T10:32:42.692Z,8.00
2019-01-22T10:35:09.758Z,8.03
2019-01-22T10:37:36.994Z,7.20
2019-01-22T10:40:04.050Z,7.60
2019-01-22T10:42:31.136Z,6.80
2019-01-22T10:44:58.201Z,7.97
2019-01-22T10:47:25.370Z,6.90
2019-01-22T10:49:52.558Z,7.97
2019-01-22T10:52:19.613Z,6.93
2019-01-22T10:54:46.805Z,7.00
2019-01-22T10:57:14.023Z,6.90
2019-01-22T10:59:41.141Z,7.07
2019-01-22T11:02:08.389Z,7.50
2019-01-22T11:04:35.502Z,6.30
2019-01-22T11:07:02.563Z,6.20
2019-01-22T11:09:29.625Z,6.93
2019-01-22T11:11:56.717Z,6.87
2019-01-22T11:14:23.830Z,6.43
2019-01-22T11:16:50.914Z,6.07
2019-01-22T11:19:18.005Z,6.10
2019-01-22T11:21:45.210Z,6.47
2019-01-22T11:24:12.387Z,6.67
2019-01-22T11:26:39.450Z,5.90
2019-01-22T11:29:09.384Z,6.57
2019-01-22T11:31:36.511Z,5.80
2019-01-22T11:34:03.644Z,6.60
2019-01-22T11:36:30.709Z,5.70
2019-01-22T11:38:57.880Z,6.30
2019-01-22T11:41:24.996Z,5.87
2019-01-22T11:43:52.149Z,6.50
2019-01-22T11:46:19.235Z,5.80
2019-01-22T11:48:49.224Z,6.33
2019-01-22T11:51:16.392Z,6.37
2019-01-22T11:53:43.567Z,5.90
2019-01-22T11:56:10.634Z,5.70
2019-01-22T11:58:37.704Z,6.10
2019-01-22T12:01:05.086Z,5.93
2019-01-22T12:03:32.205Z,6.43
2019-01-22T12:05:59.489Z,6.47
2019-01-22T12:08:26.555Z,6.53
2019-01-22T12:10:53.683Z,6.37
2019-01-22T12:13:20.740Z,5.90
2019-01-22T12:15:47.808Z,5.50
2019-01-22T12:18:14.937Z,5.93
2019-01-22T12:20:42.020Z,5.70
2019-01-22T12:23:09.108Z,5.80
2019-01-22T12:25:36.286Z,5.33
2019-01-22T12:28:03.377Z,5.90
2019-01-22T12:30:30.431Z,5.93
2019-01-22T12:32:57.495Z,5.30
2019-01-22T12:35:24.758Z,5.63
2019-01-22T12:37:51.818Z,5.70
2019-01-22T12:40:18.903Z,6.20
2019-01-22T12:42:45.996Z,4.97
2019-01-22T12:45:13.288Z,6.00
2019-01-22T12:47:40.408Z,6.23
2019-01-22T12:50:07.519Z,5.50
2019-01-22T12:52:34.580Z,6.53
2019-01-22T12:55:01.938Z,5.13
2019-01-22T12:57:28.997Z,5.30
2019-01-22T12:59:56.161Z,5.63
2019-01-22T13:02:23.665Z,5.57
2019-01-22T13:04:50.888Z,5.90
2019-01-22T13:07:18.147Z,5.93
2019-01-22T13:09:45.253Z,5.30
2019-01-22T13:12:12.308Z,5.70
2019-01-22T13:14:39.370Z,6.53
2019-01-22T13:17:06.550Z,5.50
2019-01-22T13:19:33.619Z,5.80
2019-01-22T13:22:00.713Z,5.80
2019-01-22T13:24:28.820Z,5.43
2019-01-22T13:26:56.163Z,5.97
2019-01-22T13:29:23.231Z,6.00
2019-01-22T13:31:50.325Z,5.93
2019-01-22T13:34:17.368Z,5.47
2019-01-22T13:36:44.558Z,6.50
2019-01-22T13:39:11.632Z,5.40
2019-01-22T13:41:38.789Z,5.50
2019-01-22T13:44:05.848Z,6.10
2019-01-22T13:46:32.964Z,5.53
2019-01-22T13:49:00.013Z,5.97
2019-01-22T13:51:27.184Z,5.23
2019-01-22T13:53:54.286Z,6.37
2019-01-22T13:56:21.555Z,6.17
2019-01-22T13:58:48.650Z,6.77
2019-01-22T14:01:15.714Z,5.37
2019-01-22T14:03:42.899Z,6.43
2019-01-22T14:06:10.207Z,6.30
2019-01-22T14:08:37.326Z,6.87
2019-01-22T14:11:04.481Z,7.10
2019-01-22T14:13:31.642Z,6.10
2019-01-22T14:15:58.725Z,6.63
2019-01-22T14:18:26.016Z,6.17
2019-01-22T14:20:53.090Z,6.37
2019-01-22T14:23:21.092Z,5.77
2019-01-22T14:25:48.174Z,5.87
2019-01-22T14:28:15.261Z,6.47
2019-01-22T14:30:42.499Z,5.70
2019-01-22T14:33:09.633Z,5.33
2019-01-22T14:35:36.745Z,7.60
2019-01-22T14:38:03.801Z,6.00
2019-01-22T14:40:30.861Z,7.30
2019-01-22T14:42:58.019Z,6.67
2019-01-22T14:45:25.173Z,7.10
2019-01-22T14:47:52.234Z,7.30
2019-01-22T14:50:19.364Z,7.43
2019-01-22T14:52:46.496Z,6.57
2019-01-22T14:55:13.802Z,7.07
2019-01-22T14:57:40.870Z,7.07
2019-01-22T15:00:07.987Z,6.93
2019-01-22T15:02:35.067Z,8.00
2019-01-22T15:05:02.657Z,6.20
2019-01-22T15:07:29.731Z,7.57
2019-01-22T15:09:56.924Z,7.60
2019-01-22T15:12:24.019Z,7.17
2019-01-22T15:14:51.280Z,6.87
2019-01-22T15:17:18.827Z,6.93
2019-01-22T15:19:45.945Z,6.63
2019-01-22T15:22:13.022Z,6.83
2019-01-22T15:24:40.117Z,6.87
2019-01-22T15:27:07.254Z,7.77
2019-01-22T15:29:34.396Z,7.87
2019-01-22T15:32:01.489Z,7.93
2019-01-22T15:34:28.582Z,7.40
2019-01-22T15:36:55.644Z,7.33
2019-01-22T15:39:22.718Z,8.03
2019-01-22T15:41:49.927Z,7.93
2019-01-22T15:44:17.022Z,7.93
2019-01-22T15:46:44.226Z,6.63
2019-01-22T15:49:11.327Z,6.80
2019-01-22T15:51:38.415Z,7.63
2019-01-22T15:54:05.519Z,7.67
2019-01-22T15:56:32.637Z,8.40
2019-01-22T15:58:59.700Z,7.50
2019-01-22T16:01:26.770Z,8.00
2019-01-22T16:03:53.835Z,7.17
2019-01-22T16:06:21.035Z,8.03
2019-01-22T16:08:48.102Z,7.43
2019-01-22T16:11:15.184Z,6.93
2019-01-22T16:13:42.298Z,8.30
2019-01-22T16:16:09.372Z,7.67
2019-01-22T16:18:36.482Z,8.60
2019-01-22T16:21:03.543Z,7.37
2019-01-22T16:23:30.622Z,7.77
2019-01-22T16:25:57.860Z,7.90
2019-01-22T16:28:24.912Z,8.10
2019-01-22T16:30:51.986Z,6.70
2019-01-22T16:33:20.191Z,8.47
2019-01-22T16:35:47.250Z,9.00
2019-01-22T16:38:14.362Z,8.27
2019-01-22T16:40:41.478Z,7.77
2019-01-22T16:43:08.573Z,8.50
2019-01-22T16:45:35.839Z,7.93
2019-01-22T16:48:02.883Z,7.60
2019-01-22T16:50:29.974Z,8.50
2019-01-22T16:52:57.047Z,8.30
2019-01-22T16:55:24.230Z,7.93
2019-01-22T16:57:51.344Z,8.13
2019-01-22T17:00:18.871Z,7.90
2019-01-22T17:02:46.027Z,7.67
2019-01-22T17:05:13.259Z,8.00
2019-01-22T17:07:40.355Z,8.20
2019-01-22T17:10:07.419Z,7.63
2019-01-22T17:12:35.006Z,8.50
2019-01-22T17:15:02.145Z,8.30
2019-01-22T17:17:29.292Z,7.80
2019-01-22T17:19:56.353Z,7.30
2019-01-22T17:22:23.412Z,8.13
2019-01-22T17:24:50.660Z,8.60
2019-01-22T17:27:17.728Z,8.00
2019-01-22T17:29:44.840Z,8.10
2019-01-22T17:32:11.974Z,8.27
2019-01-22T17:34:39.043Z,7.83
2019-01-22T17:37:06.132Z,7.77
2019-01-22T17:39:33.203Z,8.00
2019-01-22T17:42:00.289Z,8.10
2019-01-22T17:44:27.399Z,7.97
2019-01-22T17:46:54.691Z,7.90
2019-01-22T17:49:22.281Z,8.33
2019-01-22T17:51:49.564Z,7.97
2019-01-22T17:54:16.665Z,7.50
2019-01-22T17:56:43.769Z,7.90
2019-01-22T17:59:10.973Z,7.50
2019-01-22T18:01:38.094Z,7.33
2019-01-22T18:04:05.231Z,8.47
2019-01-22T18:06:32.523Z,9.07
2019-01-22T18:08:59.693Z,8.23
2019-01-22T18:11:26.834Z,8.70
2019-01-22T18:13:53.951Z,8.43
2019-01-22T18:16:20.996Z,7.70
2019-01-22T18:18:48.196Z,7.73
2019-01-22T18:21:15.383Z,7.67
2019-01-22T18:23:42.451Z,8.10
2019-01-22T18:26:09.715Z,8.90
2019-01-22T18:28:36.778Z,7.90
2019-01-22T18:31:03.895Z,7.13
2019-01-22T18:33:31.002Z,8.40
2019-01-22T18:35:58.307Z,7.70
2019-01-22T18:38:25.400Z,7.80
2019-01-22T18:40:52.535Z,8.73
2019-01-22T18:43:19.664Z,8.67
2019-01-22T18:45:46.754Z,8.50
2019-01-22T18:48:14.087Z,8.60
2019-01-22T18:50:41.247Z,9.17
2019-01-22T18:53:08.370Z,7.77
2019-01-22T18:55:35.455Z,8.93
2019-01-22T18:58:02.575Z,8.03
2019-01-22T19:00:29.632Z,8.40
2019-01-22T19:02:56.718Z,7.70
2019-01-22T19:05:23.880Z,7.90
2019-01-22T19:07:51.155Z,8.50
2019-01-22T19:10:18.612Z,7.57
2019-01-22T19:12:45.726Z,7.80
2019-01-22T19:15:12.785Z,8.03
2019-01-22T19:17:39.967Z,7.77
2019-01-22T19:20:07.067Z,7.40
2019-01-22T19:22:34.176Z,7.47
2019-01-22T19:25:01.323Z,7.20
2019-01-22T19:27:33.905Z,8.30
2019-01-22T19:29:57.175Z,8.33
2019-01-22T19:32:24.768Z,8.70
2019-01-22T19:35:02.619Z,7.90
2019-01-22T19:37:27.886Z,8.80
2019-01-22T19:39:55.178Z,10.37
2019-01-22T19:42:22.559Z,8.57
2019-01-22T19:44:49.699Z,8.10
2019-01-22T19:47:17.263Z,8.53
2019-01-22T19:49:44.380Z,9.00
2019-01-22T19:52:11.452Z,7.73
2019-01-22T19:54:43.552Z,9.00
2019-01-22T19:57:10.750Z,8.03
2019-01-22T19:59:37.810Z,8.17
2019-01-22T20:02:04.916Z,7.27
2019-01-22T20:04:31.978Z,8.27
2019-01-22T20:06:59.167Z,8.47
2019-01-22T20:09:26.304Z,8.60
2019-01-22T20:11:53.420Z,7.23
2019-01-22T20:14:20.546Z,7.70
2019-01-22T20:16:47.617Z,7.93
2019-01-22T20:19:14.683Z,7.90
2019-01-22T20:21:41.777Z,8.10
2019-01-22T20:24:08.851Z,8.27
2019-01-22T20:26:36.158Z,8.57
2019-01-22T20:29:03.219Z,8.60
2019-01-22T20:31:30.315Z,8.53
2019-01-22T20:33:57.430Z,7.43
2019-01-22T20:36:24.498Z,8.47
2019-01-22T20:38:51.635Z,7.07
2019-01-22T20:41:18.749Z,8.00
2019-01-22T20:43:45.810Z,7.57
2019-01-22T20:46:12.938Z,8.10
2019-01-22T20:48:39.990Z,8.07
2019-01-22T20:51:07.082Z,7.93
2019-01-22T20:53:34.172Z,7.73
2019-01-22T20:56:01.237Z,8.30
2019-01-22T20:58:28.365Z,7.30
2019-01-22T21:00:55.429Z,7.83
2019-01-22T21:03:22.527Z,7.90
2019-01-22T21:05:49.607Z,7.30
2019-01-22T21:08:16.815Z,8.47
2019-01-22T21:10:43.891Z,7.73
2019-01-22T21:13:10.998Z,8.10
2019-01-22T21:15:38.065Z,8.30
2019-01-22T21:18:05.155Z,8.90
2019-01-22T21:20:34.506Z,9.20
2019-01-22T21:23:01.571Z,8.67
2019-01-22T21:25:28.765Z,8.43
2019-01-22T21:28:01.681Z,7.63
2019-01-22T21:30:24.666Z,9.00
2019-01-22T21:32:51.831Z,8.70
2019-01-22T21:35:19.198Z,8.80
2019-01-22T21:37:46.378Z,7.63
2019-01-22T21:40:13.467Z,8.30
2019-01-22T21:42:40.536Z,7.27
2019-01-22T21:45:07.799Z,8.17
2019-01-22T21:47:34.922Z,8.47
2019-01-22T21:50:02.012Z,7.93
2019-01-22T21:52:29.106Z,8.67
2019-01-22T21:54:56.161Z,7.90
2019-01-22T21:57:23.566Z,8.97
2019-01-22T21:59:50.638Z,7.87
2019-01-22T22:02:18.212Z,6.90
2019-01-22T22:04:45.266Z,7.53
2019-01-22T22:07:12.485Z,7.10
2019-01-22T22:09:39.554Z,7.03
2019-01-22T22:12:06.634Z,7.37
2019-01-22T22:14:33.732Z,7.00
2019-01-22T22:17:00.799Z,7.53
2019-01-22T22:19:27.857Z,8.00
2019-01-22T22:21:56.543Z,7.60
2019-01-22T22:24:23.610Z,7.40
2019-01-22T22:26:50.956Z,8.30
2019-01-22T22:29:18.133Z,7.33
2019-01-22T22:31:45.392Z,7.27
2019-01-22T22:34:12.665Z,7.87
2019-01-22T22:36:40.147Z,8.20
2019-01-22T22:42:16.191Z,7.70
2019-01-22T22:44:43.350Z,7.67
2019-01-22T22:47:13.383Z,7.93
2019-01-22T22:49:40.874Z,8.27
2019-01-22T22:52:08.298Z,7.70
2019-01-22T22:57:40.560Z,7.37
2019-01-22T23:00:11.700Z,6.83
2019-01-22T23:05:38.455Z,7.97
2019-01-22T23:08:05.440Z,8.53
2019-01-22T23:10:32.606Z,8.03
2019-01-22T23:12:59.850Z,7.90
2019-01-22T23:15:30.108Z,7.93
2019-01-22T23:17:57.520Z,8.80
2019-01-22T23:20:24.777Z,7.40
2019-01-22T23:22:53.667Z,8.20
2019-01-22T23:25:21.121Z,8.47
2019-01-22T23:27:48.786Z,8.30
2019-01-22T23:30:16.217Z,7.60
2019-01-22T23:35:17.065Z,7.30
2019-01-22T23:37:45.064Z,8.40
2019-01-22T23:40:12.523Z,8.60
2019-01-22T23:45:44.178Z,8.03
2019-01-22T23:48:13.301Z,7.90
2019-01-22T23:50:42.266Z,7.60
2019-01-22T23:53:18.244Z,7.93
2019-01-22T23:55:45.803Z,7.90
2019-01-22T23:58:13.054Z,8.40
